createdAt,value
2022-10-14T00:01:43.548Z,100793.34
2022-10-14T00:04:30.042Z,100788.91
2022-10-14T00:07:15.715Z,100786.25
2022-10-14T00:10:01.137Z,100781.94
2022-10-14T00:12:47.589Z,100791.53
2022-10-14T00:15:37.208Z,100783.66
2022-10-14T00:18:22.625Z,100771.59
2022-10-14T00:21:09.283Z,100776.88
2022-10-14T00:23:57.093Z,100778.66
2022-10-14T00:26:42.853Z,100777.81
2022-10-14T00:29:28.288Z,100780.38
2022-10-14T00:32:13.638Z,100782.22
2022-10-14T00:34:59.406Z,100783.91
2022-10-14T00:37:45.049Z,100778.94
2022-10-14T00:40:30.480Z,100773.84
2022-10-14T00:43:15.961Z,100763.53
2022-10-14T00:46:01.989Z,100761.84
2022-10-14T00:48:47.756Z,100763.44
2022-10-14T00:51:34.914Z,100760.84
2022-10-14T00:54:24.637Z,100759.97
2022-10-14T00:57:11.860Z,100765.16
2022-10-14T01:00:02.457Z,100763.56
2022-10-14T01:02:49.164Z,100758.63
2022-10-14T01:05:44.627Z,100760.47
2022-10-14T01:08:55.582Z,100750.34
2022-10-14T01:12:09.768Z,100748.91
2022-10-14T01:15:07.985Z,100756.75
2022-10-14T01:18:17.906Z,100748.22
2022-10-14T01:21:12.872Z,100748.34
2022-10-14T01:24:14.878Z,100745.72
2022-10-14T01:27:21.774Z,100744.81
2022-10-14T01:30:14.566Z,100738.78
2022-10-14T01:33:14.793Z,100737.00
2022-10-14T01:36:24.511Z,100730.13
2022-10-14T01:39:15.311Z,100731.91
2022-10-14T01:42:11.440Z,100724.97
2022-10-14T01:45:15.943Z,100724.97
2022-10-14T01:48:03.644Z,100722.31
2022-10-14T01:50:52.499Z,100718.84
2022-10-14T01:53:43.926Z,100713.63
2022-10-14T01:56:34.986Z,100712.88
2022-10-14T01:59:25.979Z,100719.03
2022-10-14T02:02:13.582Z,100709.56
2022-10-14T02:05:00.085Z,100714.75
2022-10-14T02:07:50.298Z,100704.41
2022-10-14T02:11:02.556Z,100707.03
2022-10-14T02:14:26.025Z,100706.19
2022-10-14T02:17:14.277Z,100698.38
2022-10-14T02:20:20.687Z,100684.53
2022-10-14T02:23:16.982Z,100689.75
2022-10-14T02:26:03.069Z,100675.88
2022-10-14T02:28:50.317Z,100682.78
2022-10-14T02:31:40.055Z,100675.88
2022-10-14T02:34:26.154Z,100671.53
2022-10-14T02:37:13.272Z,100668.94
2022-10-14T02:40:14.535Z,100662.88
2022-10-14T02:43:00.360Z,100656.81
2022-10-14T02:45:45.641Z,100647.28
2022-10-14T02:48:31.149Z,100644.66
2022-10-14T02:51:17.502Z,100630.78
2022-10-14T02:54:02.825Z,100623.84
2022-10-14T02:56:48.127Z,100623.84
2022-10-14T02:59:33.532Z,100613.44
2022-10-14T03:02:19.239Z,100620.38
2022-10-14T03:05:06.421Z,100616.03
2022-10-14T03:07:52.085Z,100611.72
2022-10-14T03:10:39.087Z,100603.91
2022-10-14T03:13:27.651Z,100607.38
2022-10-14T03:16:13.651Z,100603.06
2022-10-14T03:19:02.531Z,100607.38
2022-10-14T03:21:59.611Z,100596.09
2022-10-14T03:24:45.479Z,100590.91
2022-10-14T03:28:03.322Z,100583.09
2022-10-14T03:30:58.490Z,100579.63
2022-10-14T03:34:03.831Z,100572.69
2022-10-14T03:36:50.408Z,100568.34
2022-10-14T03:39:35.821Z,100569.22
2022-10-14T03:42:23.955Z,100564.88
2022-10-14T03:45:10.517Z,100557.94
2022-10-14T03:47:57.871Z,100567.47
2022-10-14T03:50:43.336Z,100568.34
2022-10-14T03:53:29.728Z,100560.53
2022-10-14T03:56:15.986Z,100561.41
2022-10-14T03:59:03.304Z,100560.53
2022-10-14T04:01:48.965Z,100569.19
2022-10-14T04:04:40.198Z,100567.47
2022-10-14T04:07:25.602Z,100563.16
2022-10-14T04:10:15.626Z,100562.25
2022-10-14T04:13:07.064Z,100565.75
2022-10-14T04:15:55.760Z,100560.56
2022-10-14T04:18:46.792Z,100560.53
2022-10-14T04:21:36.342Z,100554.47
2022-10-14T04:24:21.976Z,100553.59
2022-10-14T04:27:14.779Z,100551.84
2022-10-14T04:30:14.475Z,100547.53
2022-10-14T04:33:08.015Z,100552.72
2022-10-14T04:36:05.978Z,100549.25
2022-10-14T04:38:55.567Z,100550.97
2022-10-14T04:41:41.461Z,100545.78
2022-10-14T04:44:30.757Z,100543.19
2022-10-14T04:47:19.013Z,100540.56
2022-10-14T04:50:09.776Z,100539.66
2022-10-14T04:52:56.890Z,100548.31
2022-10-14T04:55:44.118Z,100537.00
2022-10-14T04:58:29.458Z,100532.66
2022-10-14T05:01:17.713Z,100529.16
2022-10-14T05:04:03.552Z,100530.00
2022-10-14T05:06:54.059Z,100521.28
2022-10-14T05:09:40.112Z,100509.97
2022-10-14T05:12:38.737Z,100519.50
2022-10-14T05:15:24.298Z,100516.03
2022-10-14T05:18:25.224Z,100517.75
2022-10-14T05:21:20.677Z,100516.03
2022-10-14T05:24:13.297Z,100506.47
2022-10-14T05:26:59.595Z,100507.31
2022-10-14T05:29:48.950Z,100516.00
2022-10-14T05:32:35.384Z,100504.69
2022-10-14T05:35:46.367Z,100507.28
2022-10-14T05:38:33.862Z,100515.09
2022-10-14T05:41:19.237Z,100522.91
2022-10-14T05:44:05.695Z,100510.72
2022-10-14T05:46:52.696Z,100510.72
2022-10-14T05:49:37.986Z,100518.50
2022-10-14T05:52:25.061Z,100519.34
2022-10-14T05:55:11.961Z,100521.06
2022-10-14T05:57:58.330Z,100514.09
2022-10-14T06:00:49.267Z,100514.09
2022-10-14T06:03:37.619Z,100516.69
2022-10-14T06:06:26.694Z,100514.09
2022-10-14T06:09:14.790Z,100512.34
2022-10-14T06:12:00.802Z,100516.69
2022-10-14T06:14:46.676Z,100517.56
2022-10-14T06:17:32.451Z,100519.31
2022-10-14T06:20:17.720Z,100512.34
2022-10-14T06:23:03.894Z,100513.22
2022-10-14T06:25:49.552Z,100507.16
2022-10-14T06:28:35.995Z,100510.63
2022-10-14T06:31:21.643Z,100504.53
2022-10-14T06:34:07.191Z,100507.16
2022-10-14T06:36:52.932Z,100513.25
2022-10-14T06:39:38.301Z,100514.13
2022-10-14T06:42:24.119Z,100523.69
2022-10-14T06:45:10.363Z,100521.94
2022-10-14T06:47:56.816Z,100511.50
2022-10-14T06:50:42.771Z,100515.91
2022-10-14T06:53:29.487Z,100514.16
2022-10-14T06:56:14.833Z,100506.34
2022-10-14T06:59:00.874Z,100508.09
2022-10-14T07:01:46.266Z,100518.56
2022-10-14T07:04:31.556Z,100517.66
2022-10-14T07:07:16.998Z,100523.78
2022-10-14T07:10:02.582Z,100522.88
2022-10-14T07:12:48.575Z,100529.00
2022-10-14T07:15:36.236Z,100525.50
2022-10-14T07:18:22.254Z,100539.41
2022-10-14T07:21:07.985Z,100532.44
2022-10-14T07:23:54.994Z,100531.59
2022-10-14T07:26:40.575Z,100536.84
2022-10-14T07:29:26.278Z,100532.50
2022-10-14T07:32:11.698Z,100532.47
2022-10-14T07:34:57.226Z,100539.47
2022-10-14T07:37:42.598Z,100542.97
2022-10-14T07:40:28.527Z,100543.88
2022-10-14T07:43:14.073Z,100543.03
2022-10-14T07:46:05.388Z,100551.72
2022-10-14T07:48:57.326Z,100557.81
2022-10-14T07:51:44.041Z,100558.72
2022-10-14T07:54:31.220Z,100560.47
2022-10-14T07:57:16.940Z,100563.09
2022-10-14T08:00:03.481Z,100554.41
2022-10-14T08:02:57.065Z,100563.97
2022-10-14T08:05:42.386Z,100563.09
2022-10-14T08:08:28.727Z,100568.31
2022-10-14T08:11:18.579Z,100568.31
2022-10-14T08:14:05.057Z,100577.84
2022-10-14T08:16:50.764Z,100574.38
2022-10-14T08:19:36.752Z,100576.09
2022-10-14T08:22:22.609Z,100576.94
2022-10-14T08:25:08.598Z,100572.56
2022-10-14T08:27:57.446Z,100576.84
2022-10-14T08:30:43.338Z,100571.59
2022-10-14T08:33:28.999Z,100571.63
2022-10-14T08:36:15.545Z,100568.94
2022-10-14T08:39:01.173Z,100570.59
2022-10-14T08:41:58.659Z,100571.47
2022-10-14T08:44:44.020Z,100561.88
2022-10-14T08:47:37.579Z,100571.41
2022-10-14T08:50:30.570Z,100567.00
2022-10-14T08:53:22.747Z,100573.09
2022-10-14T08:56:08.352Z,100570.50
2022-10-14T08:58:58.132Z,100579.13
2022-10-14T09:01:51.847Z,100579.97
2022-10-14T09:04:38.240Z,100578.19
2022-10-14T09:07:24.062Z,100584.31
2022-10-14T09:10:18.745Z,100571.25
2022-10-14T09:13:39.322Z,100566.81
2022-10-14T09:16:29.517Z,100575.50
2022-10-14T09:19:36.938Z,100569.44
2022-10-14T09:22:24.508Z,100572.94
2022-10-14T09:25:16.833Z,100583.34
2022-10-14T09:28:02.528Z,100590.28
2022-10-14T09:30:48.312Z,100582.38
2022-10-14T09:33:42.145Z,100579.69
2022-10-14T09:36:28.222Z,100575.25
2022-10-14T09:39:14.397Z,100575.19
2022-10-14T09:42:00.906Z,100558.59
2022-10-14T09:45:05.351Z,100556.72
2022-10-14T09:48:07.931Z,100556.50
2022-10-14T09:50:57.037Z,100546.75
2022-10-14T09:53:47.884Z,100548.38
2022-10-14T09:56:41.675Z,100544.69
2022-10-14T09:59:28.631Z,100537.63
2022-10-14T10:02:25.069Z,100532.91
2022-10-14T10:05:29.024Z,100516.09
2022-10-14T10:08:14.367Z,100508.81
2022-10-14T10:11:13.983Z,100511.47
2022-10-14T10:13:59.543Z,100495.66
2022-10-14T10:16:45.145Z,100496.41
2022-10-14T10:19:39.060Z,100502.41
2022-10-14T10:22:31.590Z,100502.53
2022-10-14T10:25:20.150Z,100489.72
2022-10-14T10:28:16.581Z,100498.72
2022-10-14T10:31:30.241Z,100498.19
2022-10-14T10:34:51.475Z,100498.31
2022-10-14T10:38:22.012Z,100493.25
2022-10-14T10:41:10.599Z,100486.53
2022-10-14T10:44:08.475Z,100487.41
2022-10-14T10:46:55.077Z,100491.72
2022-10-14T10:50:10.306Z,100502.91
2022-10-14T10:53:18.674Z,100492.06
2022-10-14T10:56:49.131Z,100492.28
2022-10-14T11:00:13.455Z,100483.03
2022-10-14T11:03:20.587Z,100488.38
2022-10-14T11:06:06.309Z,100485.06
2022-10-14T11:09:20.256Z,100488.66
2022-10-14T11:12:27.345Z,100483.81
2022-10-14T11:15:25.547Z,100480.38
2022-10-14T11:18:37.377Z,100484.06
2022-10-14T11:21:37.890Z,100483.31
2022-10-14T11:24:26.164Z,100477.28
2022-10-14T11:27:28.140Z,100468.56
2022-10-14T11:30:26.831Z,100470.34
2022-10-14T11:33:49.118Z,100453.69
2022-10-14T11:36:53.002Z,100460.56
2022-10-14T11:39:56.071Z,100457.72
2022-10-14T11:43:02.688Z,100446.91
2022-10-14T11:46:00.811Z,100444.09
2022-10-14T11:49:10.619Z,100445.84
2022-10-14T11:52:03.205Z,100439.59
2022-10-14T11:54:56.121Z,100437.66
2022-10-14T11:57:55.027Z,100448.25
2022-10-14T12:00:44.698Z,100453.66
2022-10-14T12:03:30.120Z,100455.47
2022-10-14T12:06:25.215Z,100468.91
2022-10-14T12:09:57.431Z,100462.97
2022-10-14T12:12:45.360Z,100461.31
2022-10-14T12:18:16.196Z,100465.34
2022-10-14T12:21:32.177Z,100451.22
2022-10-14T12:24:21.883Z,100449.19
2022-10-14T12:27:11.667Z,100430.78
2022-10-14T12:29:59.121Z,100435.63
2022-10-14T12:33:09.442Z,100445.69
2022-10-14T12:35:59.439Z,100441.06
2022-10-14T12:39:19.712Z,100427.41
2022-10-14T12:42:13.132Z,100428.38
2022-10-14T12:45:01.795Z,100427.19
2022-10-14T12:47:47.351Z,100430.03
2022-10-14T12:50:40.129Z,100417.22
2022-10-14T12:53:32.386Z,100407.59
2022-10-14T12:56:35.029Z,100423.88
2022-10-14T12:59:27.091Z,100413.47
2022-10-14T13:02:21.765Z,100409.22
2022-10-14T13:05:10.582Z,100405.97
2022-10-14T13:08:16.057Z,100411.56
2022-10-14T13:11:04.457Z,100407.41
2022-10-14T13:13:59.419Z,100402.47
2022-10-14T13:16:44.910Z,100406.56
2022-10-14T13:19:33.268Z,100389.75
2022-10-14T13:22:38.991Z,100374.94
2022-10-14T13:25:28.819Z,100379.25
2022-10-14T13:28:28.678Z,100380.25
2022-10-14T13:31:29.900Z,100373.09
2022-10-14T13:34:35.030Z,100383.44
2022-10-14T13:37:43.429Z,100371.06
2022-10-14T13:40:43.103Z,100366.78
2022-10-14T13:43:42.825Z,100363.28
2022-10-14T13:46:39.592Z,100354.25
2022-10-14T13:49:39.403Z,100348.44
2022-10-14T13:52:26.768Z,100347.47
2022-10-14T13:55:22.343Z,100338.72
2022-10-14T13:58:14.270Z,100336.91
2022-10-14T14:01:04.793Z,100343.03
2022-10-14T14:03:57.363Z,100337.72
2022-10-14T14:07:03.148Z,100338.59
2022-10-14T14:10:01.004Z,100319.88
2022-10-14T14:12:46.790Z,100328.84
2022-10-14T14:15:40.715Z,100325.69
2022-10-14T14:18:56.393Z,100324.97
2022-10-14T14:21:41.932Z,100324.41
2022-10-14T14:24:29.623Z,100322.19
2022-10-14T14:27:21.620Z,100328.03
2022-10-14T14:30:21.721Z,100329.47
2022-10-14T14:33:13.492Z,100319.31
2022-10-14T14:36:02.832Z,100322.97
2022-10-14T14:39:01.269Z,100315.22
2022-10-14T14:41:55.148Z,100322.75
2022-10-14T14:44:43.171Z,100319.09
2022-10-14T14:47:30.076Z,100311.22
2022-10-14T14:50:29.995Z,100305.47
2022-10-14T14:53:20.901Z,100300.00
2022-10-14T14:56:14.429Z,100289.22
2022-10-14T14:59:16.340Z,100286.81
2022-10-14T15:02:05.033Z,100289.25
2022-10-14T15:05:06.502Z,100287.88
2022-10-14T15:07:52.116Z,100296.28
2022-10-14T15:10:48.366Z,100290.56
2022-10-14T15:13:40.203Z,100291.41
2022-10-14T15:16:42.421Z,100284.34
2022-10-14T15:19:37.235Z,100290.03
2022-10-14T15:22:31.420Z,100287.56
2022-10-14T15:25:27.948Z,100291.13
2022-10-14T15:28:30.626Z,100280.28
2022-10-14T15:31:17.872Z,100280.50
2022-10-14T15:34:04.158Z,100283.47
2022-10-14T15:36:51.315Z,100282.47
2022-10-14T15:39:36.820Z,100271.69
2022-10-14T15:42:23.703Z,100265.28
2022-10-14T15:45:09.772Z,100265.22
2022-10-14T15:48:01.857Z,100259.31
2022-10-14T15:50:48.545Z,100262.13
2022-10-14T15:53:34.231Z,100256.16
2022-10-14T15:56:21.327Z,100255.47
2022-10-14T15:59:07.032Z,100252.16
2022-10-14T16:01:53.156Z,100254.06
2022-10-14T16:04:45.366Z,100255.09
2022-10-14T16:07:41.150Z,100250.78
2022-10-14T16:10:29.327Z,100245.59
2022-10-14T16:13:17.925Z,100238.63
2022-10-14T16:16:06.331Z,100232.59
2022-10-14T16:18:52.650Z,100234.47
2022-10-14T16:21:39.272Z,100227.69
2022-10-14T16:24:25.606Z,100223.50
2022-10-14T16:27:11.169Z,100222.75
2022-10-14T16:29:56.752Z,100218.56
2022-10-14T16:32:42.577Z,100215.19
2022-10-14T16:35:29.254Z,100216.19
2022-10-14T16:38:14.914Z,100223.31
2022-10-14T16:41:03.264Z,100219.97
2022-10-14T16:43:48.648Z,100223.56
2022-10-14T16:46:54.680Z,100214.09
2022-10-14T16:49:40.766Z,100224.59
2022-10-14T16:52:26.547Z,100218.63
2022-10-14T16:55:12.126Z,100214.47
2022-10-14T16:57:59.134Z,100219.78
2022-10-14T17:00:44.517Z,100209.50
2022-10-14T17:03:30.641Z,100211.31
2022-10-14T17:06:18.303Z,100207.94
2022-10-14T17:09:07.397Z,100197.59
2022-10-14T17:11:52.621Z,100194.16
2022-10-14T17:14:38.173Z,100201.22
2022-10-14T17:17:24.315Z,100197.88
2022-10-14T17:20:10.068Z,100195.44
2022-10-14T17:22:55.893Z,100203.38
2022-10-14T17:25:46.318Z,100190.56
2022-10-14T17:28:33.309Z,100197.72
2022-10-14T17:31:20.682Z,100193.50
2022-10-14T17:34:06.449Z,100202.25
2022-10-14T17:36:53.473Z,100202.34
2022-10-14T17:39:39.305Z,100198.03
2022-10-14T17:42:25.466Z,100198.09
2022-10-14T17:45:11.091Z,100196.38
2022-10-14T17:47:57.570Z,100199.00
2022-10-14T17:50:48.602Z,100200.69
2022-10-14T17:53:34.195Z,100200.69
2022-10-14T17:56:19.684Z,100198.94
2022-10-14T17:59:08.468Z,100201.50
2022-10-14T18:02:02.999Z,100197.09
2022-10-14T18:04:49.150Z,100195.34
2022-10-14T18:07:37.780Z,100198.81
2022-10-14T18:10:24.214Z,100206.59
2022-10-14T18:13:09.620Z,100203.13
2022-10-14T18:15:55.186Z,100202.28
2022-10-14T18:18:42.166Z,100200.53
2022-10-14T18:21:28.660Z,100195.31
2022-10-14T18:24:14.146Z,100203.03
2022-10-14T18:26:59.642Z,100195.16
2022-10-14T18:29:44.947Z,100205.56
2022-10-14T18:32:30.390Z,100196.88
2022-10-14T18:35:15.851Z,100192.53
2022-10-14T18:38:01.302Z,100193.34
2022-10-14T18:40:46.738Z,100183.75
2022-10-14T18:43:32.897Z,100177.56
2022-10-14T18:46:23.258Z,100175.72
2022-10-14T18:49:11.753Z,100172.16
2022-10-14T18:51:56.972Z,100173.84
2022-10-14T18:54:42.359Z,100173.75
2022-10-14T18:57:27.984Z,100177.13
2022-10-14T19:00:14.485Z,100171.94
2022-10-14T19:03:00.103Z,100172.66
2022-10-14T19:05:47.254Z,100175.19
2022-10-14T19:08:32.708Z,100180.31
2022-10-14T19:11:22.989Z,100173.53
2022-10-14T19:14:10.008Z,100175.34
2022-10-14T19:16:55.781Z,100174.66
2022-10-14T19:19:42.475Z,100172.25
2022-10-14T19:22:28.300Z,100169.75
2022-10-14T19:25:14.163Z,100158.72
2022-10-14T19:27:59.560Z,100163.19
2022-10-14T19:30:44.921Z,100160.59
2022-10-14T19:33:30.206Z,100158.09
2022-10-14T19:36:18.146Z,100146.88
2022-10-14T19:39:05.097Z,100151.16
2022-10-14T19:41:50.319Z,100141.63
2022-10-14T19:44:35.933Z,100133.00
2022-10-14T19:47:21.663Z,100126.97
2022-10-14T19:50:07.749Z,100132.06
2022-10-14T19:52:53.313Z,100118.19
2022-10-14T19:55:38.718Z,100112.13
2022-10-14T19:58:24.138Z,100111.25
2022-10-14T20:01:11.306Z,100104.31
2022-10-14T20:03:59.120Z,100106.03
2022-10-14T20:06:45.162Z,100107.78
2022-10-14T20:09:30.503Z,100101.78
2022-10-14T20:12:15.868Z,100090.53
2022-10-14T20:15:01.292Z,100088.78
2022-10-14T20:17:46.697Z,100083.56
2022-10-14T20:20:32.419Z,100080.06
2022-10-14T20:23:19.080Z,100072.22
2022-10-14T20:26:11.625Z,100067.88
2022-10-14T20:28:56.828Z,100061.81
2022-10-14T20:31:42.054Z,100056.69
2022-10-14T20:34:27.381Z,100053.13
2022-10-14T20:37:12.779Z,100048.78
2022-10-14T20:39:58.410Z,100039.25
2022-10-14T20:42:44.016Z,100039.25
2022-10-14T20:45:29.491Z,100037.53
2022-10-14T20:48:15.111Z,100027.06
2022-10-14T20:51:05.413Z,100022.69
2022-10-14T20:54:00.381Z,100012.25
2022-10-14T20:56:49.377Z,100008.72
2022-10-14T20:59:36.097Z,100009.53
2022-10-14T21:02:21.962Z,99999.13
2022-10-14T21:05:08.384Z,99994.69
2022-10-14T21:07:53.918Z,99992.97
2022-10-14T21:10:39.675Z,99996.41
2022-10-14T21:13:25.465Z,99992.03
2022-10-14T21:16:21.206Z,99994.59
2022-10-14T21:19:08.837Z,99984.22
2022-10-14T21:21:55.320Z,99978.09
2022-10-14T21:24:41.904Z,99980.69
2022-10-14T21:27:27.741Z,99986.78
2022-10-14T21:30:13.639Z,99984.25
2022-10-14T21:32:59.309Z,99977.53
2022-10-14T21:35:44.982Z,99981.09
2022-10-14T21:38:30.591Z,99978.53
2022-10-14T21:41:16.114Z,99976.03
2022-10-14T21:44:02.061Z,99978.69
2022-10-14T21:46:48.851Z,99972.69
2022-10-14T21:49:34.375Z,99964.09
2022-10-14T21:52:19.879Z,99957.16
2022-10-14T21:55:06.067Z,99948.50
2022-10-14T21:57:52.613Z,99937.16
2022-10-14T22:00:38.238Z,99928.50
2022-10-14T22:03:23.660Z,99919.81
2022-10-14T22:06:17.040Z,99908.50
2022-10-14T22:09:05.525Z,99907.56
2022-10-14T22:11:52.943Z,99898.97
2022-10-14T22:14:38.251Z,99891.13
2022-10-14T22:17:23.818Z,99898.03
2022-10-14T22:20:09.917Z,99895.41
2022-10-14T22:22:55.283Z,99887.66
2022-10-14T22:25:40.794Z,99898.81
2022-10-14T22:28:26.278Z,99881.59
2022-10-14T22:31:13.197Z,99876.53
2022-10-14T22:33:59.676Z,99869.84
2022-10-14T22:36:45.613Z,99861.22
2022-10-14T22:39:30.915Z,99852.63
2022-10-14T22:42:16.449Z,99845.75
2022-10-14T22:45:01.929Z,99839.75
2022-10-14T22:47:47.532Z,99835.47
2022-10-14T22:50:35.470Z,99830.34
2022-10-14T22:53:21.578Z,99828.59
2022-10-14T22:56:09.151Z,99816.56
2022-10-14T22:58:56.401Z,99798.47
2022-10-14T23:01:43.115Z,99792.44
2022-10-14T23:04:28.435Z,99781.19
2022-10-14T23:07:14.281Z,99774.28
2022-10-14T23:10:00.158Z,99761.31
2022-10-14T23:12:45.539Z,99746.63
2022-10-14T23:15:31.272Z,99752.66
2022-10-14T23:18:17.046Z,99738.81
2022-10-14T23:21:15.393Z,99731.91
2022-10-14T23:24:06.334Z,99725.88
2022-10-14T23:26:51.730Z,99718.97
2022-10-14T23:29:37.061Z,99712.03
2022-10-14T23:32:22.411Z,99708.59
2022-10-14T23:35:08.115Z,99703.44
2022-10-14T23:37:53.542Z,99700.00
2022-10-14T23:40:38.799Z,99701.75
2022-10-14T23:43:24.575Z,99707.78
2022-10-14T23:46:10.198Z,99704.34
2022-10-14T23:49:06.909Z,99708.59
2022-10-14T23:51:55.302Z,99712.06
2022-10-14T23:54:40.711Z,99715.47
2022-10-14T23:57:26.252Z,99716.38
